Time;durP1;ratioP1;P1;durP2;ratioP2;P2;SDS_P1;SDS_P2;PMS_P1;PMS_P2;Temp;Humidity;BMP_temperature;BMP_pressure;BME280_temperature;BME280_humidity;BME280_pressure;Samples;Min_cycle;Max_cycle;Signal;HPM_P1;HPM_P2
2023/03/04 00:00:25;;;;;;;10.52;1.80;;;;;;;4.37;100.00;102507.09;4937130;29;20109;-84
2023/03/04 00:02:51;;;;;;;7.43;1.95;;;;;;;4.71;100.00;102553.44;4939464;29;20051;-83
2023/03/04 00:05:18;;;;;;;6.95;1.83;;;;;;;4.52;100.00;102547.09;4941569;28;20122;-83
2023/03/04 00:07:45;;;;;;;7.93;1.85;;;;;;;4.47;100.00;102541.81;4927760;28;20063;-83
2023/03/04 00:10:11;;;;;;;8.27;1.77;;;;;;;4.38;100.00;102534.75;4942930;29;20073;-83
2023/03/04 00:12:38;;;;;;;7.85;2.13;;;;;;;4.18;100.00;102505.91;4936839;29;20058;-83
2023/03/04 00:15:05;;;;;;;7.82;2.00;;;;;;;4.25;100.00;102543.19;4940217;29;20047;-83
2023/03/04 00:17:32;;;;;;;7.28;1.90;;;;;;;4.07;100.00;102507.44;4938424;29;20055;-83
2023/03/04 00:19:59;;;;;;;9.18;3.95;;;;;;;4.36;100.00;102549.41;4931992;28;20055;-83
2023/03/04 00:22:25;;;;;;;6.15;1.95;;;;;;;4.43;100.00;102555.59;4931172;28;20056;-83
2023/03/04 00:24:52;;;;;;;5.75;1.70;;;;;;;4.42;100.00;102555.56;4931958;29;20074;-83
2023/03/04 00:27:19;;;;;;;7.18;1.50;;;;;;;4.36;100.00;102556.34;4934683;29;20596;-83
2023/03/04 00:29:45;;;;;;;10.95;1.80;;;;;;;4.04;100.00;102509.06;4936188;29;20102;-83
2023/03/04 00:32:12;;;;;;;7.35;1.80;;;;;;;4.03;100.00;102521.19;5015087;28;20055;-83
2023/03/04 00:34:39;;;;;;;6.25;1.50;;;;;;;4.27;100.00;102544.09;4932134;29;20423;-83
2023/03/04 00:37:06;;;;;;;6.40;1.40;;;;;;;4.38;100.00;102560.69;4933231;29;20056;-83
2023/03/04 00:39:32;;;;;;;3.95;1.23;;;;;;;4.35;100.00;102541.59;4931005;29;20060;-83
2023/03/04 00:41:59;;;;;;;7.43;1.40;;;;;;;4.28;100.00;102545.81;4927341;29;20117;-83
2023/03/04 00:44:26;;;;;;;5.13;1.48;;;;;;;4.28;100.00;102557.91;4932237;29;20063;-84
2023/03/04 00:46:53;;;;;;;6.00;1.58;;;;;;;4.06;100.00;102521.25;4933303;29;20051;-83
2023/03/04 00:49:19;;;;;;;3.97;1.45;;;;;;;4.14;100.00;102540.41;4931936;29;20047;-85
2023/03/04 00:51:46;;;;;;;7.25;1.50;;;;;;;4.01;100.00;102525.47;4931832;29;20490;-83
2023/03/04 00:54:13;;;;;;;3.42;1.48;;;;;;;4.13;100.00;102543.84;4931786;29;20059;-83
2023/03/04 00:56:39;;;;;;;8.00;1.38;;;;;;;4.08;100.00;102542.00;4930971;29;20047;-83
2023/03/04 00:59:06;;;;;;;6.22;1.50;;;;;;;3.99;100.00;102512.47;4932616;29;20079;-83
2023/03/04 01:01:33;;;;;;;8.50;2.03;;;;;;;3.94;100.00;102514.09;4931850;28;20047;-83
2023/03/04 01:03:59;;;;;;;6.43;1.52;;;;;;;3.85;100.00;102492.34;4931570;29;20054;-83
2023/03/04 01:06:26;;;;;;;4.72;1.73;;;;;;;3.92;100.00;102502.84;4931350;29;20621;-83
2023/03/04 01:08:53;;;;;;;7.72;1.70;;;;;;;4.16;100.00;102543.91;4930917;29;20047;-83
2023/03/04 01:11:20;;;;;;;3.55;1.30;;;;;;;3.91;100.00;102497.63;4930404;29;20665;-83
2023/03/04 01:13:47;;;;;;;7.47;2.10;;;;;;;3.82;100.00;102490.56;4943150;29;20059;-83
2023/03/04 01:16:14;;;;;;;9.93;1.65;;;;;;;3.78;100.00;102487.03;4935017;28;20098;-83
2023/03/04 01:18:41;;;;;;;9.00;1.83;;;;;;;4.10;100.00;102536.00;4931628;29;20047;-83
2023/03/04 01:21:08;;;;;;;3.38;1.42;;;;;;;3.92;100.00;102489.03;4938977;28;20415;-82
2023/03/04 01:23:34;;;;;;;8.20;2.58;;;;;;;3.86;100.00;102482.00;4930897;29;20055;-83
2023/03/04 01:26:01;;;;;;;11.57;2.08;;;;;;;3.96;100.00;102517.59;4930727;29;20055;-83
2023/03/04 01:28:28;;;;;;;10.43;1.80;;;;;;;3.71;100.00;102477.41;4929892;29;20054;-83
2023/03/04 01:30:55;;;;;;;11.40;1.73;;;;;;;3.98;100.00;102502.06;4931588;29;20059;-84
2023/03/04 01:33:22;;;;;;;13.65;2.78;;;;;;;3.62;100.00;102461.69;4932275;29;20476;-83
2023/03/04 01:35:48;;;;;;;11.90;2.50;;;;;;;3.69;100.00;102454.91;4932478;29;20544;-83
2023/03/04 01:38:15;;;;;;;8.50;1.80;;;;;;;4.09;100.00;102521.31;4930990;29;20052;-83
2023/03/04 01:40:42;;;;;;;7.70;1.88;;;;;;;4.15;100.00;102526.59;4930685;28;20043;-83
2023/03/04 01:43:19;;;;;;;11.10;1.60;;;;;;;4.00;100.00;102505.56;4932305;29;20102;-83
2023/03/04 01:45:47;;;;;;;8.00;1.52;;;;;;;3.77;100.00;102472.34;4930682;29;20059;-83
2023/03/04 01:48:17;;;;;;;8.88;2.47;;;;;;;3.87;100.00;102498.44;4932272;29;20047;-83
2023/03/04 01:50:44;;;;;;;4.82;1.52;;;;;;;3.86;100.00;102494.97;4930903;28;20066;-83
2023/03/04 01:53:21;;;;;;;4.60;1.52;;;;;;;4.03;100.00;102512.53;4932499;29;20413;-83
2023/03/04 01:55:50;;;;;;;6.18;1.50;;;;;;;3.71;100.00;102455.81;4944134;29;20508;-83
2023/03/04 01:58:17;;;;;;;6.15;1.40;;;;;;;4.08;100.00;102513.50;4931227;29;20063;-83
2023/03/04 02:00:44;;;;;;;6.38;2.28;;;;;;;3.69;100.00;102457.50;4931441;29;20048;-83
2023/03/04 02:03:14;;;;;;;4.82;1.30;;;;;;;3.97;100.00;102484.78;4930722;29;20047;-83
2023/03/04 02:05:44;;;;;;;3.58;1.65;;;;;;;3.96;100.00;102493.41;4932780;29;20101;-83
2023/03/04 02:08:12;;;;;;;12.63;2.20;;;;;;;4.02;100.00;102498.72;4932016;29;20052;-83
2023/03/04 02:10:42;;;;;;;6.70;1.58;;;;;;;3.68;100.00;102445.38;4927095;29;20048;-83
2023/03/04 02:13:09;;;;;;;6.97;1.70;;;;;;;3.56;100.00;102427.88;4922322;29;20067;-83
2023/03/04 02:15:36;;;;;;;5.38;1.83;;;;;;;3.74;100.00;102461.06;4934747;29;20074;-83
2023/03/04 02:18:20;;;;;;;5.50;1.40;;;;;;;3.94;100.00;102482.13;4934551;29;20456;-84
2023/03/04 02:21:01;;;;;;;6.18;1.88;;;;;;;4.03;100.00;102495.25;4930827;29;20052;-83
2023/03/04 02:23:39;;;;;;;7.90;1.70;;;;;;;3.88;100.00;102489.78;4934686;28;20474;-84
2023/03/04 02:26:35;;;;;;;5.55;1.75;;;;;;;3.99;100.00;102481.38;4935229;29;20055;-84
2023/03/04 02:29:03;;;;;;;9.07;1.73;;;;;;;3.91;100.00;102463.94;4918120;29;20486;-84
2023/03/04 02:31:33;;;;;;;8.60;1.80;;;;;;;4.06;100.00;102481.50;4933957;29;20421;-84
2023/03/04 02:34:02;;;;;;;3.75;1.35;;;;;;;3.74;100.00;102432.56;4935201;29;20067;-83
2023/03/04 02:36:30;;;;;;;6.18;1.45;;;;;;;3.93;100.00;102455.34;4933962;29;20794;-82
2023/03/04 02:39:06;;;;;;;7.65;2.50;;;;;;;3.70;100.00;102421.28;4934866;29;20125;-83
2023/03/04 02:41:33;;;;;;;6.82;2.17;;;;;;;4.01;100.00;102464.97;4934235;29;20508;-84
2023/03/04 02:44:00;;;;;;;11.02;1.98;;;;;;;3.87;100.00;102439.69;4934946;29;20051;-83
2023/03/04 02:46:27;;;;;;;12.00;1.80;;;;;;;3.76;100.00;102431.72;4935152;29;20086;-82
2023/03/04 02:48:53;;;;;;;6.85;1.73;;;;;;;3.86;100.00;102455.19;4933399;29;20052;-82
2023/03/04 02:51:23;;;;;;;6.93;1.88;;;;;;;3.84;100.00;102412.84;4934422;28;20391;-83
2023/03/04 02:53:50;;;;;;;4.13;1.60;;;;;;;3.82;100.00;102420.59;4933093;29;20056;-83
2023/03/04 02:56:19;;;;;;;6.15;1.70;;;;;;;3.79;100.00;102436.09;4934860;29;20056;-83
2023/03/04 02:58:46;;;;;;;5.82;1.67;;;;;;;3.67;100.00;102425.53;4933699;29;20059;-83
2023/03/04 03:01:13;;;;;;;6.88;1.77;;;;;;;3.85;100.00;102438.78;4927428;29;20051;-83
2023/03/04 03:03:40;;;;;;;7.57;1.50;;;;;;;3.72;100.00;102427.34;4933244;29;20063;-83
2023/03/04 03:06:07;;;;;;;6.15;1.77;;;;;;;3.67;100.00;102413.44;4933479;29;20055;-84
2023/03/04 03:08:34;;;;;;;10.18;2.10;;;;;;;3.56;100.00;102408.06;4933031;29;20047;-82
2023/03/04 03:11:01;;;;;;;4.47;1.52;;;;;;;3.72;100.00;102436.81;4925888;29;20139;-82
2023/03/04 03:13:28;;;;;;;8.43;1.67;;;;;;;3.46;100.00;102385.44;4940852;29;20086;-84
2023/03/04 03:15:54;;;;;;;10.27;1.60;;;;;;;3.83;100.00;102442.22;4938195;28;20060;-83
2023/03/04 03:18:21;;;;;;;7.35;1.80;;;;;;;3.70;100.00;102421.28;4932962;29;20056;-84
2023/03/04 03:20:49;;;;;;;7.97;1.60;;;;;;;3.38;100.00;102384.41;4924969;29;20052;-83
2023/03/04 03:23:16;;;;;;;6.68;1.70;;;;;;;3.11;100.00;102362.31;4934006;28;20048;-84
2023/03/04 03:25:43;;;;;;;7.60;1.55;;;;;;;3.54;100.00;102398.50;4934595;29;20592;-83
2023/03/04 03:28:10;;;;;;;8.10;1.55;;;;;;;3.53;100.00;102405.41;4933185;29;20127;-83
2023/03/04 03:30:37;;;;;;;6.45;1.63;;;;;;;3.58;100.00;102385.66;4934194;28;20048;-83
2023/03/04 03:33:03;;;;;;;11.68;1.75;;;;;;;3.35;100.00;102367.09;4933638;28;20122;-84
2023/03/04 03:35:30;;;;;;;6.43;1.90;;;;;;;3.32;100.00;102382.56;4934611;29;20048;-84
2023/03/04 03:37:57;;;;;;;6.65;1.88;;;;;;;3.79;100.00;102436.97;4934412;29;20091;-83
2023/03/04 03:40:23;;;;;;;7.57;1.75;;;;;;;3.24;100.00;102353.09;4930190;28;20049;-83
2023/03/04 03:42:50;;;;;;;12.50;2.13;;;;;;;3.42;100.00;102381.91;4933381;29;20055;-83
2023/03/04 03:45:17;;;;;;;8.63;2.17;;;;;;;3.63;100.00;102402.97;4933168;29;20060;-83
2023/03/04 03:47:44;;;;;;;6.20;1.77;;;;;;;3.51;100.00;102383.78;4933195;28;20059;-84
2023/03/04 03:50:11;;;;;;;10.82;2.55;;;;;;;3.33;100.00;102360.13;4933704;28;20048;-83
2023/03/04 03:52:38;;;;;;;7.90;2.15;;;;;;;3.18;100.00;102360.72;4949018;28;20478;-83
2023/03/04 03:55:05;;;;;;;4.90;1.65;;;;;;;3.59;100.00;102394.28;4933309;29;20069;-83
2023/03/04 03:57:32;;;;;;;5.93;1.85;;;;;;;3.53;100.00;102376.06;4934412;29;20052;-83
2023/03/04 03:59:58;;;;;;;4.82;1.73;;;;;;;3.70;100.00;102399.66;4931975;29;20170;-83
2023/03/04 04:02:25;;;;;;;7.30;1.75;;;;;;;3.48;100.00;102360.41;4933719;28;20056;-83
2023/03/04 04:04:52;;;;;;;9.05;1.70;;;;;;;3.66;100.00;102408.22;4933878;29;20054;-83
2023/03/04 04:07:19;;;;;;;10.25;1.75;;;;;;;3.35;100.00;102368.84;4938561;29;20048;-84
2023/03/04 04:09:46;;;;;;;5.80;1.67;;;;;;;3.85;100.00;102431.00;4939262;29;20452;-83
2023/03/04 04:12:15;;;;;;;5.68;1.60;;;;;;;3.68;100.00;102432.44;4932304;29;20043;-84
2023/03/04 04:14:42;;;;;;;8.45;2.08;;;;;;;3.42;100.00;102383.63;4932797;29;20478;-83
2023/03/04 04:17:10;;;;;;;6.05;2.50;;;;;;;3.29;100.00;102340.22;4932668;29;20055;-84
2023/03/04 04:19:37;;;;;;;7.20;1.65;;;;;;;3.36;100.00;102355.03;4934305;29;20124;-83
2023/03/04 04:22:04;;;;;;;9.45;2.00;;;;;;;3.62;100.00;102391.75;4928561;29;20047;-84
2023/03/04 04:24:30;;;;;;;9.80;2.00;;;;;;;3.64;100.00;102395.25;4933015;29;20048;-85
2023/03/04 04:26:57;;;;;;;7.57;1.70;;;;;;;3.83;100.00;102404.22;4933692;29;20064;-85
2023/03/04 04:29:24;;;;;;;8.40;1.67;;;;;;;3.77;100.00;102407.56;4934330;29;20493;-85
2023/03/04 04:31:51;;;;;;;9.48;1.73;;;;;;;3.40;100.00;102347.34;4960769;28;20051;-85
2023/03/04 04:34:17;;;;;;;5.30;1.45;;;;;;;3.83;100.00;102424.94;4951849;29;20055;-85
2023/03/04 04:36:44;;;;;;;7.15;1.55;;;;;;;3.33;100.00;102340.31;4953350;28;20469;-85
2023/03/04 04:39:11;;;;;;;6.53;1.88;;;;;;;3.53;100.00;102381.25;4951263;28;20051;-85
2023/03/04 04:41:40;;;;;;;6.38;1.75;;;;;;;3.63;100.00;102377.97;4932100;29;20162;-84
2023/03/04 04:44:07;;;;;;;8.00;1.50;;;;;;;3.84;100.00;102416.31;4946974;29;20055;-85
2023/03/04 04:46:34;;;;;;;6.57;1.85;;;;;;;3.20;100.00;102334.03;4932308;29;20059;-85
2023/03/04 04:49:01;;;;;;;4.80;1.70;;;;;;;3.53;100.00;102366.56;4933542;29;20052;-84
2023/03/04 04:51:28;;;;;;;9.27;1.55;;;;;;;3.34;100.00;102356.72;4927204;29;20434;-84
2023/03/04 04:53:55;;;;;;;5.47;1.63;;;;;;;3.54;100.00;102381.25;4931962;29;20122;-84
2023/03/04 04:56:25;;;;;;;6.78;1.60;;;;;;;3.39;100.00;102342.13;4933094;28;20048;-83
2023/03/04 04:58:55;;;;;;;5.10;1.50;;;;;;;3.60;100.00;102367.53;4931600;29;20063;-83
2023/03/04 05:01:22;;;;;;;6.65;1.75;;;;;;;3.49;100.00;102364.78;4932644;28;21716;-83
2023/03/04 05:03:52;;;;;;;7.63;2.28;;;;;;;3.75;100.00;102398.91;4932161;28;20468;-83
2023/03/04 05:06:20;;;;;;;4.57;1.50;;;;;;;3.48;100.00;102365.59;4931778;29;20063;-83
2023/03/04 05:08:46;;;;;;;8.95;1.65;;;;;;;3.24;100.00;102332.41;4931676;29;20051;-84
2023/03/04 05:11:14;;;;;;;6.70;1.77;;;;;;;3.42;100.00;102362.91;4919528;29;20052;-84
2023/03/04 05:13:41;;;;;;;7.30;1.60;;;;;;;3.48;100.00;102360.41;4930568;29;20482;-84
2023/03/04 05:16:08;;;;;;;5.65;1.42;;;;;;;3.49;100.00;102362.19;4932844;29;20086;-83
2023/03/04 05:18:35;;;;;;;7.50;1.80;;;;;;;3.43;100.00;102364.66;4945344;29;20054;-84
2023/03/04 05:21:03;;;;;;;8.30;1.85;;;;;;;3.47;100.00;102386.28;4933077;28;20059;-84
2023/03/04 05:23:35;;;;;;;5.30;1.40;;;;;;;3.83;100.00;102430.13;4932206;28;20062;-84
2023/03/04 05:26:03;;;;;;;7.50;1.75;;;;;;;3.73;100.00;102426.47;4932294;29;20401;-84
2023/03/04 05:28:31;;;;;;;3.97;1.27;;;;;;;3.74;100.00;102424.78;4943279;29;20466;-84
2023/03/04 05:30:57;;;;;;;4.90;1.60;;;;;;;3.47;100.00;102368.16;4931638;29;20060;-84
2023/03/04 05:33:24;;;;;;;5.80;1.88;;;;;;;3.55;100.00;102375.22;4931752;29;20056;-84
2023/03/04 05:35:52;;;;;;;5.35;1.20;;;;;;;3.44;100.00;102352.59;4931646;29;20058;-84
2023/03/04 05:38:20;;;;;;;6.78;1.55;;;;;;;3.42;100.00;102349.97;4935592;29;20630;-84
2023/03/04 05:40:48;;;;;;;8.20;2.25;;;;;;;3.71;100.00;102396.22;4934428;29;20055;-84
2023/03/04 05:43:15;;;;;;;3.25;1.17;;;;;;;3.90;100.00;102428.53;4941292;29;20059;-83
2023/03/04 05:45:42;;;;;;;6.65;1.38;;;;;;;3.36;100.00;102344.66;4934925;29;20044;-84
2023/03/04 05:48:08;;;;;;;4.63;1.50;;;;;;;3.84;100.00;102418.03;4944035;28;20060;-83
2023/03/04 05:50:36;;;;;;;3.03;1.30;;;;;;;3.06;100.00;102301.84;4938669;28;20055;-84
2023/03/04 05:53:03;;;;;;;4.00;1.33;;;;;;;3.57;100.00;102373.53;4918662;29;20039;-83
2023/03/04 05:55:33;;;;;;;5.75;2.63;;;;;;;3.84;100.00;102410.25;4937836;28;20528;-83
2023/03/04 05:58:00;;;;;;;6.05;1.58;;;;;;;3.28;100.00;102336.78;4935997;29;20437;-83
2023/03/04 06:00:27;;;;;;;5.70;1.90;;;;;;;3.48;100.00;102355.25;4935887;29;20051;-83
2023/03/04 06:02:53;;;;;;;4.72;1.40;;;;;;;3.35;100.00;102340.34;4937226;28;20556;-84
2023/03/04 06:05:21;;;;;;;5.05;1.30;;;;;;;3.50;100.00;102379.44;4944992;28;20052;-84
2023/03/04 06:07:48;;;;;;;4.07;1.40;;;;;;;3.83;100.00;102421.47;4935901;29;20047;-84
2023/03/04 06:10:16;;;;;;;7.25;1.80;;;;;;;3.55;100.00;102377.81;4935641;28;20467;-84
2023/03/04 06:12:43;;;;;;;5.72;1.67;;;;;;;3.50;100.00;102383.75;4936899;29;20058;-84
2023/03/04 06:15:10;;;;;;;4.50;1.50;;;;;;;3.83;100.00;102413.72;4935886;29;20473;-83
2023/03/04 06:17:38;;;;;;;6.03;1.38;;;;;;;3.66;100.00;102390.94;4937271;28;20056;-83
2023/03/04 06:20:09;;;;;;;3.90;1.30;;;;;;;3.89;100.00;102426.75;4948120;28;20182;-83
2023/03/04 06:22:36;;;;;;;5.35;1.23;;;;;;;3.41;100.00;102356.84;4932723;29;20044;-84
2023/03/04 06:25:04;;;;;;;4.20;1.52;;;;;;;3.40;100.00;102356.84;4932720;29;20055;-84
2023/03/04 06:27:30;;;;;;;4.63;1.50;;;;;;;3.53;100.00;102378.66;4942637;29;20493;-82
2023/03/04 06:29:57;;;;;;;5.43;1.60;;;;;;;3.53;100.00;102371.75;4939880;28;20052;-83
2023/03/04 06:32:24;;;;;;;4.00;1.45;;;;;;;3.56;100.00;102378.69;4934570;29;20052;-83
2023/03/04 06:34:51;;;;;;;5.30;1.45;;;;;;;3.88;100.00;102435.38;4939450;29;20055;-83
2023/03/04 06:37:18;;;;;;;9.32;1.73;;;;;;;3.99;100.00;102437.31;4931710;29;20058;-83
2023/03/04 06:39:45;;;;;;;3.33;1.27;;;;;;;3.85;100.00;102392.16;4932001;28;20063;-83
2023/03/04 06:42:12;;;;;;;5.00;1.90;;;;;;;4.11;100.00;102435.78;4931000;28;20051;-83
2023/03/04 06:44:39;;;;;;;4.63;1.60;;;;;;;3.85;100.00;102396.47;4937380;29;20059;-83
2023/03/04 06:47:06;;;;;;;3.28;1.20;;;;;;;3.56;100.00;102352.78;4943580;28;20051;-83
2023/03/04 06:49:33;;;;;;;2.50;1.25;;;;;;;3.71;100.00;102378.09;4951211;28;20047;-83
2023/03/04 06:52:00;;;;;;;4.30;1.33;;;;;;;4.16;100.00;102426.34;4931319;29;20135;-83
2023/03/04 06:54:27;;;;;;;3.70;1.50;;;;;;;3.77;100.00;102375.59;4934667;28;20105;-83
2023/03/04 06:56:53;;;;;;;3.55;1.67;;;;;;;3.98;100.00;102399.28;4935983;29;20070;-84
2023/03/04 06:59:20;;;;;;;4.25;1.55;;;;;;;3.86;100.00;102388.72;4941216;29;20473;-82
2023/03/04 07:01:47;;;;;;;5.97;1.60;;;;;;;3.82;100.00;102370.50;4939799;28;20044;-82
2023/03/04 07:04:16;;;;;;;12.60;3.22;;;;;;;4.16;100.00;102411.66;4935264;29;20048;-83
2023/03/04 07:06:43;;;;;;;5.15;1.60;;;;;;;4.15;100.00;102407.31;4939027;28;20058;-83
2023/03/04 07:09:10;;;;;;;6.65;1.50;;;;;;;4.08;100.00;102400.28;4942816;28;20382;-83
2023/03/04 07:11:37;;;;;;;3.38;1.23;;;;;;;4.12;100.00;102403.81;4919306;29;20048;-83
2023/03/04 07:14:03;;;;;;;5.80;1.50;;;;;;;4.44;100.00;102431.97;4935547;29;20060;-83
2023/03/04 07:16:30;;;;;;;4.15;1.20;;;;;;;4.20;100.00;102394.44;4938325;29;20742;-83
2023/03/04 07:18:57;;;;;;;7.05;1.55;;;;;;;4.66;100.00;102454.78;4930439;29;20090;-83
2023/03/04 07:21:24;;;;;;;1.90;1.25;;;;;;;4.68;100.00;102468.63;4925046;29;20501;-83
2023/03/04 07:23:51;;;;;;;5.03;1.40;;;;;;;4.37;100.00;102426.69;4931997;29;20068;-83
2023/03/04 07:26:18;;;;;;;5.00;1.55;;;;;;;4.70;100.00;102472.13;4928554;28;20504;-83
2023/03/04 07:28:45;;;;;;;3.50;1.33;;;;;;;4.71;100.00;102470.41;4934757;29;20060;-83
2023/03/04 07:31:18;;;;;;;5.22;1.40;;;;;;;4.73;100.00;102479.09;4929629;29;20052;-84
2023/03/04 07:33:45;;;;;;;;;;;;;;;4.84;100.00;102474.06;4932997;28;20139;-84
2023/03/04 07:36:13;;;;;;;7.18;1.38;;;;;;;4.50;100.00;102401.81;4933183;29;20360;-84
2023/03/04 07:38:45;;;;;;;7.65;1.40;;;;;;;4.28;100.00;102402.31;4931617;29;20051;-83
2023/03/04 07:41:12;;;;;;;3.75;1.30;;;;;;;4.45;100.00;102454.47;4932754;29;20058;-83
2023/03/04 07:43:39;;;;;;;4.00;1.27;;;;;;;4.74;100.00;102463.53;4944738;28;20401;-83
2023/03/04 07:46:06;;;;;;;6.82;1.30;;;;;;;4.85;100.00;102480.97;4946689;29;20444;-85
2023/03/04 07:48:33;;;;;;;3.22;1.27;;;;;;;4.61;100.00;102440.88;4934437;29;20102;-84
2023/03/04 07:51:04;;;;;;;5.68;1.48;;;;;;;4.90;100.00;102487.09;4928016;28;20055;-84
2023/03/04 07:53:31;;;;;;;8.23;1.65;;;;;;;4.80;100.00;102472.25;4936529;29;20055;-84
2023/03/04 07:55:58;;;;;;;3.05;1.30;;;;;;;4.94;100.00;102483.72;4932796;29;20058;-83
2023/03/04 07:58:28;;;;;;;4.38;1.50;;;;;;;4.62;100.00;102447.81;4923799;29;20059;-83
2023/03/04 08:00:55;;;;;;;3.95;1.38;;;;;;;4.63;100.00;102440.88;4928313;29;20735;-84
2023/03/04 08:03:21;;;;;;;6.15;1.60;;;;;;;4.43;100.00;102412.06;4931103;29;20129;-83
2023/03/04 08:05:49;;;;;;;6.47;1.40;;;;;;;4.89;100.00;102457.69;4933939;29;20794;-84
2023/03/04 08:08:16;;;;;;;7.63;1.60;;;;;;;4.86;100.00;102460.25;4932384;29;20052;-84
2023/03/04 08:10:43;;;;;;;6.03;1.85;;;;;;;4.98;100.00;102472.53;4930999;29;20074;-84
2023/03/04 08:13:10;;;;;;;5.13;1.40;;;;;;;4.85;100.00;102445.53;4932056;29;20055;-84
2023/03/04 08:15:41;;;;;;;6.97;1.30;;;;;;;4.98;100.00;102479.44;4932824;28;20047;-84
2023/03/04 08:18:08;;;;;;;5.63;1.60;;;;;;;4.82;100.00;102444.63;4934088;29;20399;-84
2023/03/04 08:20:35;;;;;;;4.82;1.50;;;;;;;4.53;100.00;102398.38;4932694;29;20062;-84
2023/03/04 08:23:02;;;;;;;5.72;1.83;;;;;;;4.78;100.00;102437.63;4934067;28;20790;-84
2023/03/04 08:25:29;;;;;;;9.30;1.50;;;;;;;4.56;100.00;102413.97;4935036;29;20086;-83
2023/03/04 08:27:55;;;;;;;3.47;1.40;;;;;;;4.67;100.00;102416.72;4933955;29;20048;-82
2023/03/04 08:30:22;;;;;;;6.10;1.50;;;;;;;4.94;100.00;102422.28;5016777;28;20473;-83
2023/03/04 08:32:49;;;;;;;4.53;1.50;;;;;;;4.99;100.00;102424.06;4933966;29;20055;-82
2023/03/04 08:35:16;;;;;;;4.65;1.50;;;;;;;4.98;100.00;102407.63;4934364;28;20052;-82
2023/03/04 08:37:43;;;;;;;3.55;1.42;;;;;;;5.07;100.00;102456.19;4936501;28;20393;-83
2023/03/04 08:40:11;;;;;;;5.55;1.42;;;;;;;5.32;100.00;102471.22;4932884;28;20075;-83
2023/03/04 08:42:38;;;;;;;6.63;1.50;;;;;;;5.42;100.00;102437.53;4951476;28;20574;-83
2023/03/04 08:45:05;;;;;;;6.82;1.67;;;;;;;5.65;100.00;102423.09;4944812;29;20055;-82
2023/03/04 08:47:32;;;;;;;6.50;1.55;;;;;;;5.48;100.00;102435.03;4943101;28;20054;-83
2023/03/04 08:49:59;;;;;;;7.50;1.80;;;;;;;6.03;100.00;102477.19;4946459;29;20062;-82
2023/03/04 08:52:28;;;;;;;7.57;1.50;;;;;;;5.94;100.00;102426.81;4943844;28;20047;-83
2023/03/04 08:54:54;;;;;;;5.85;1.90;;;;;;;6.10;100.00;102428.72;4934141;29;20055;-83
2023/03/04 08:57:22;;;;;;;8.98;2.28;;;;;;;5.99;100.00;102417.34;4944232;28;20106;-82
2023/03/04 08:59:49;;;;;;;5.68;1.90;;;;;;;6.04;100.00;102437.34;4941740;29;20095;-82
2023/03/04 09:02:16;;;;;;;8.68;1.90;;;;;;;6.03;100.00;102432.97;4944058;29;20093;-82
2023/03/04 09:04:42;;;;;;;5.32;1.63;;;;;;;5.82;100.00;102414.56;4937674;28;20474;-83
2023/03/04 09:07:10;;;;;;;11.40;2.50;;;;;;;6.04;100.00;102424.34;4940097;29;20051;-82
2023/03/04 09:09:36;;;;;;;6.40;2.58;;;;;;;5.93;100.00;102435.47;4948589;28;20058;-83
2023/03/04 09:12:03;;;;;;;6.38;1.60;;;;;;;6.21;100.00;102486.00;4929173;28;20051;-83
2023/03/04 09:14:31;;;;;;;6.75;1.70;;;;;;;6.01;100.00;102444.25;4945063;28;20055;-83
2023/03/04 09:16:58;;;;;;;7.18;2.00;;;;;;;5.81;100.00;102433.63;4936306;28;20054;-82
2023/03/04 09:19:26;;;;;;;8.70;2.00;;;;;;;5.93;100.00;102454.53;4942192;29;20054;-83
2023/03/04 09:21:54;;;;;;;6.88;1.80;;;;;;;5.80;100.00;102429.28;4936173;28;20051;-84
2023/03/04 09:24:21;;;;;;;10.13;2.38;;;;;;;5.80;100.00;102427.53;4942739;28;20066;-84
2023/03/04 09:26:52;;;;;;;11.43;2.80;;;;;;;6.25;100.00;102478.25;4939505;29;20401;-84
2023/03/04 09:29:19;;;;;;;8.40;2.03;;;;;;;6.39;100.00;102493.09;4929767;29;20181;-84
2023/03/04 09:31:46;;;;;;;8.45;1.88;;;;;;;6.07;100.00;102434.78;4932509;28;20051;-83
2023/03/04 09:34:13;;;;;;;11.35;2.13;;;;;;;5.97;100.00;102458.09;4942186;28;20461;-83
2023/03/04 09:36:40;;;;;;;7.38;1.92;;;;;;;5.89;100.00;102430.22;4940518;28;20051;-83
2023/03/04 09:39:06;;;;;;;9.23;1.75;;;;;;;6.18;100.00;102454.78;4936942;28;20055;-83
2023/03/04 09:41:42;;;;;;;13.30;2.47;;;;;;;6.19;100.00;102470.38;4940629;29;20054;-84
2023/03/04 09:44:20;;;;;;;14.10;2.53;;;;;;;6.11;100.00;102453.88;4939945;28;20102;-84
2023/03/04 09:46:47;;;;;;;11.38;2.47;;;;;;;6.36;100.00;102483.53;4932232;28;20059;-84
2023/03/04 09:49:16;;;;;;;9.85;2.05;;;;;;;6.36;100.00;102452.31;4933590;29;20063;-83
2023/03/04 09:51:49;;;;;;;14.55;2.17;;;;;;;6.71;100.00;102476.84;4932023;28;20484;-84
2023/03/04 09:54:28;;;;;;;11.65;1.90;;;;;;;6.72;100.00;102476.84;4932556;29;20062;-84
2023/03/04 09:57:04;;;;;;;15.43;2.65;;;;;;;6.83;100.00;102459.59;4924486;28;20048;-83
2023/03/04 09:59:48;;;;;;;8.45;2.42;;;;;;;6.48;100.00;102422.94;4946607;28;20073;-83
2023/03/04 10:02:38;;;;;;;9.20;2.28;;;;;;;6.99;100.00;102428.38;4923159;29;20052;-85
2023/03/04 10:05:06;;;;;;;11.95;2.03;;;;;;;7.39;100.00;102436.34;5030508;28;20056;-84
2023/03/04 10:07:39;;;;;;;10.60;1.75;;;;;;;7.40;100.00;102423.34;4928646;29;20052;-84
2023/03/04 10:10:12;;;;;;;10.73;1.95;;;;;;;7.30;100.00;102449.38;4933803;29;20059;-84
2023/03/04 10:12:42;;;;;;;10.68;2.55;;;;;;;7.24;100.00;102444.97;4927932;28;20072;-84
2023/03/04 10:15:40;;;;;;;7.50;2.05;;;;;;;7.52;100.00;102458.09;4930081;29;20074;-83
2023/03/04 10:18:13;;;;;;;8.13;1.73;;;;;;;7.57;100.00;102462.47;4932451;28;20052;-84
2023/03/04 10:20:57;;;;;;;8.18;2.30;;;;;;;7.33;100.00;102441.53;4929646;28;20052;-84
2023/03/04 10:23:25;;;;;;;12.55;2.40;;;;;;;7.58;100.00;102465.97;4913023;29;20051;-84
2023/03/04 10:25:54;;;;;;;14.25;2.50;;;;;;;7.59;100.00;102476.34;4933417;28;20066;-85
2023/03/04 10:28:26;;;;;;;10.38;1.88;;;;;;;7.55;100.00;102469.41;4932335;29;20048;-83
2023/03/04 10:30:53;;;;;;;10.23;2.30;;;;;;;7.57;100.00;102464.22;4930034;29;20063;-84
2023/03/04 10:33:24;;;;;;;12.88;3.00;;;;;;;7.18;100.00;102455.41;4940729;29;20070;-84
2023/03/04 10:36:04;;;;;;;10.23;2.00;;;;;;;6.83;100.00;102402.31;4922081;29;20052;-84
2023/03/04 10:38:34;;;;;;;10.52;2.03;;;;;;;6.98;100.00;102463.13;5018680;28;20387;-84
2023/03/04 10:41:12;;;;;;;12.63;2.08;;;;;;;6.36;100.00;102405.50;4928984;28;20066;-84
2023/03/04 10:43:39;;;;;;;12.52;2.50;;;;;;;6.45;100.00;102421.16;4935106;29;20048;-84
2023/03/04 10:46:10;;;;;;;11.02;2.15;;;;;;;6.44;100.00;102428.94;4936952;29;20047;-84
2023/03/04 10:48:40;;;;;;;15.68;2.72;;;;;;;6.65;100.00;102482.88;4936936;29;20542;-85
2023/03/04 10:51:22;;;;;;;7.05;2.33;;;;;;;6.60;100.00;102448.13;4926168;28;20075;-85
2023/03/04 10:53:56;;;;;;;7.55;1.92;;;;;;;6.97;100.00;102477.00;4944984;28;20054;-85
2023/03/04 10:56:38;;;;;;;8.10;1.75;;;;;;;6.66;100.00;102476.81;4935132;28;20052;-84
2023/03/04 10:59:33;;;;;;;8.98;2.58;;;;;;;6.46;100.00;102490.56;4935589;29;20055;-84
2023/03/04 11:02:09;;;;;;;7.13;1.90;;;;;;;6.54;100.00;102472.41;4923781;29;20469;-84
2023/03/04 11:04:36;;;;;;;9.57;2.20;;;;;;;6.50;100.00;102455.03;4942805;29;20052;-84
2023/03/04 11:07:09;;;;;;;9.90;1.90;;;;;;;6.97;100.00;102469.19;4935812;29;20054;-83
2023/03/04 11:09:36;;;;;;;9.40;2.17;;;;;;;6.93;100.00;102468.28;4935934;29;20051;-84
2023/03/04 11:12:09;;;;;;;11.75;2.38;;;;;;;6.53;100.00;102416.00;4934645;29;20055;-84
2023/03/04 11:14:47;;;;;;;12.43;1.80;;;;;;;7.15;100.00;102458.88;4934926;29;20051;-84
2023/03/04 11:17:22;;;;;;;12.77;2.65;;;;;;;7.00;100.00;102457.03;4931063;29;20456;-85
2023/03/04 11:19:57;;;;;;;12.75;2.45;;;;;;;6.84;100.00;102414.44;4934987;28;20061;-84
2023/03/04 11:22:26;;;;;;;15.25;2.50;;;;;;;6.77;100.00;102381.44;4936440;28;20052;-82
2023/03/04 11:24:57;;;;;;;10.43;2.25;;;;;;;6.80;100.00;102386.66;4935350;29;20482;-85
2023/03/04 11:27:35;;;;;;;16.98;2.47;;;;;;;7.48;100.00;102444.19;4922497;28;20059;-84
2023/03/04 11:30:33;;;;;;;12.18;2.53;;;;;;;7.48;100.00;102433.78;4931592;29;20060;-84